createdAt,value
2022-12-14T00:01:17.659Z,9.27
2022-12-14T00:03:45.466Z,9.88
2022-12-14T00:06:14.254Z,9.13
2022-12-14T00:08:42.123Z,10.07
2022-12-14T00:11:10.038Z,10.75
2022-12-14T00:13:38.146Z,10.73
2022-12-14T00:16:09.304Z,10.27
2022-12-14T00:18:36.448Z,9.98
2022-12-14T00:21:07.594Z,8.75
2022-12-14T00:23:38.890Z,10.60
2022-12-14T00:26:10.666Z,8.93
2022-12-14T00:28:38.280Z,9.65
2022-12-14T00:31:05.858Z,9.75
2022-12-14T00:33:33.410Z,9.20
2022-12-14T00:36:01.062Z,9.63
2022-12-14T00:38:28.761Z,10.35
2022-12-14T00:40:56.174Z,9.68
2022-12-14T00:43:24.061Z,9.80
2022-12-14T00:45:51.544Z,10.45
2022-12-14T00:48:20.384Z,10.57
2022-12-14T00:50:48.588Z,10.27
2022-12-14T00:53:15.993Z,10.85
2022-12-14T00:55:44.443Z,11.15
2022-12-14T00:58:17.534Z,10.35
2022-12-14T01:00:44.811Z,11.40
2022-12-14T01:03:12.721Z,11.60
2022-12-14T01:05:40.269Z,10.35
2022-12-14T01:08:07.793Z,9.15
2022-12-14T01:10:35.532Z,9.65
2022-12-14T01:13:02.651Z,10.15
2022-12-14T01:15:29.873Z,10.73
2022-12-14T01:17:57.013Z,9.60
2022-12-14T01:20:24.122Z,10.38
2022-12-14T01:22:55.557Z,10.13
2022-12-14T01:25:23.054Z,9.32
2022-12-14T01:27:50.354Z,10.65
2022-12-14T01:30:19.375Z,10.75
2022-12-14T01:32:46.947Z,10.15
2022-12-14T01:35:14.117Z,10.88
2022-12-14T01:37:41.318Z,10.32
2022-12-14T01:40:09.070Z,10.48
2022-12-14T01:42:37.386Z,10.77
2022-12-14T01:45:05.312Z,10.82
2022-12-14T01:47:35.304Z,11.35
2022-12-14T01:50:05.110Z,10.10
2022-12-14T01:53:01.662Z,6.40
2022-12-14T01:55:32.739Z,7.90
2022-12-14T01:58:12.402Z,6.70
2022-12-14T02:00:39.928Z,7.18
2022-12-14T02:03:11.991Z,6.45
2022-12-14T02:05:42.836Z,5.72
2022-12-14T02:08:10.305Z,4.65
2022-12-14T02:10:37.489Z,7.13
2022-12-14T02:13:14.693Z,7.50
2022-12-14T02:15:42.734Z,10.18
2022-12-14T02:18:12.703Z,9.55
2022-12-14T02:20:45.423Z,8.77
2022-12-14T02:23:18.598Z,7.90
2022-12-14T02:26:05.333Z,7.55
2022-12-14T02:28:32.431Z,6.38
2022-12-14T02:31:29.050Z,4.72
2022-12-14T02:33:56.171Z,5.72
2022-12-14T02:36:32.356Z,5.72
2022-12-14T02:38:59.462Z,5.43
2022-12-14T02:41:26.569Z,3.53
2022-12-14T02:44:05.809Z,5.60
2022-12-14T02:46:50.539Z,5.45
2022-12-14T02:49:38.118Z,6.28
2022-12-14T02:52:07.017Z,6.55
2022-12-14T02:54:46.166Z,6.13
2022-12-14T02:57:19.236Z,5.10
2022-12-14T02:59:47.708Z,4.75
2022-12-14T03:02:15.248Z,5.00
2022-12-14T03:04:51.479Z,5.75
2022-12-14T03:07:32.085Z,5.60
2022-12-14T03:10:06.563Z,4.97
2022-12-14T03:12:34.361Z,6.40
2022-12-14T03:15:02.339Z,6.40
2022-12-14T03:17:31.480Z,6.13
2022-12-14T03:20:01.470Z,6.00
2022-12-14T03:22:34.396Z,4.88
2022-12-14T03:25:03.549Z,6.00
2022-12-14T03:27:35.400Z,6.45
2022-12-14T03:30:14.104Z,6.70
2022-12-14T03:32:48.430Z,6.65
2022-12-14T03:35:24.845Z,7.47
2022-12-14T03:38:00.093Z,6.70
2022-12-14T03:40:35.760Z,7.00
2022-12-14T03:43:02.945Z,6.50
2022-12-14T03:45:36.165Z,7.55
2022-12-14T03:48:03.340Z,7.78
2022-12-14T03:50:38.708Z,5.80
2022-12-14T03:53:14.862Z,7.10
2022-12-14T03:55:55.732Z,7.20
2022-12-14T03:58:46.172Z,7.70
2022-12-14T04:01:31.420Z,7.80
2022-12-14T04:04:06.877Z,7.82
2022-12-14T04:06:42.888Z,8.15
2022-12-14T04:09:20.565Z,8.18
2022-12-14T04:12:13.540Z,7.72
2022-12-14T04:15:04.555Z,8.48
2022-12-14T04:17:52.174Z,6.80
2022-12-14T04:20:45.487Z,7.18
2022-12-14T04:23:15.834Z,7.97
2022-12-14T04:26:05.197Z,7.30
2022-12-14T04:29:11.032Z,8.40
2022-12-14T04:31:40.375Z,7.72
2022-12-14T04:34:07.873Z,8.00
2022-12-14T04:36:40.095Z,8.77
2022-12-14T04:39:09.401Z,8.45
2022-12-14T04:41:38.641Z,9.48
2022-12-14T04:44:13.256Z,9.48
2022-12-14T04:46:41.163Z,9.90
2022-12-14T04:49:11.955Z,10.52
2022-12-14T04:51:54.445Z,11.50
2022-12-14T04:54:21.756Z,11.18
2022-12-14T04:56:53.322Z,12.60
2022-12-14T04:59:20.677Z,13.30
2022-12-14T05:01:56.986Z,12.80
2022-12-14T05:04:39.608Z,12.60
2022-12-14T05:07:25.304Z,12.60
2022-12-14T05:10:06.004Z,13.18
2022-12-14T05:12:49.413Z,10.98
2022-12-14T05:15:19.731Z,12.52
2022-12-14T05:17:46.880Z,9.43
2022-12-14T05:20:19.433Z,11.27
2022-12-14T05:22:46.691Z,10.60
2022-12-14T05:25:13.825Z,9.98
2022-12-14T05:27:41.351Z,9.77
2022-12-14T05:30:08.767Z,9.98
2022-12-14T05:32:36.045Z,9.60
2022-12-14T05:35:04.042Z,9.70
2022-12-14T05:37:31.296Z,10.35
2022-12-14T05:39:58.708Z,9.93
2022-12-14T05:42:25.868Z,9.88
2022-12-14T05:44:53.036Z,9.45
2022-12-14T05:47:20.152Z,9.80
2022-12-14T05:49:49.248Z,10.32
2022-12-14T05:52:16.685Z,8.80
2022-12-14T05:54:43.962Z,9.63
2022-12-14T05:57:11.162Z,8.90
2022-12-14T05:59:38.344Z,7.35
2022-12-14T06:02:05.832Z,9.95
2022-12-14T06:04:33.644Z,9.75
2022-12-14T06:07:00.948Z,10.15
2022-12-14T06:09:28.048Z,9.60
2022-12-14T06:11:55.202Z,9.02
2022-12-14T06:14:24.398Z,10.30
2022-12-14T06:16:51.501Z,8.13
2022-12-14T06:19:18.980Z,9.82
2022-12-14T06:21:46.203Z,9.40
2022-12-14T06:24:13.600Z,10.35
2022-12-14T06:26:41.113Z,9.98
2022-12-14T06:29:09.607Z,11.45
2022-12-14T06:31:38.195Z,11.23
2022-12-14T06:34:05.683Z,11.57
2022-12-14T06:36:34.279Z,13.10
2022-12-14T06:39:03.225Z,12.05
2022-12-14T06:41:30.436Z,13.15
2022-12-14T06:43:57.946Z,14.73
2022-12-14T06:46:26.106Z,15.10
2022-12-14T06:48:54.347Z,17.33
2022-12-14T06:51:22.215Z,16.98
2022-12-14T06:53:56.109Z,15.23
2022-12-14T06:56:23.991Z,14.73
2022-12-14T06:58:52.618Z,14.48
2022-12-14T07:01:21.181Z,14.00
2022-12-14T07:03:49.547Z,12.93
2022-12-14T07:06:16.836Z,13.18
2022-12-14T07:08:44.391Z,12.75
2022-12-14T07:11:12.548Z,11.45
2022-12-14T07:13:39.904Z,11.70
2022-12-14T07:16:07.979Z,12.85
2022-12-14T07:18:35.580Z,10.60
2022-12-14T07:21:04.296Z,11.80
2022-12-14T07:23:32.619Z,12.00
2022-12-14T07:26:03.824Z,11.48
2022-12-14T07:28:31.088Z,10.88
2022-12-14T07:30:59.449Z,12.30
2022-12-14T07:33:28.459Z,11.95
2022-12-14T07:36:05.862Z,12.57
2022-12-14T07:38:33.679Z,12.73
2022-12-14T07:41:08.200Z,12.48
2022-12-14T07:43:35.394Z,12.45
2022-12-14T07:46:03.280Z,12.05
2022-12-14T07:48:30.752Z,13.80
2022-12-14T07:51:05.432Z,12.30
2022-12-14T07:53:32.653Z,12.48
2022-12-14T07:56:07.061Z,12.07
2022-12-14T07:58:35.035Z,12.63
2022-12-14T08:01:09.230Z,11.32
2022-12-14T08:03:36.987Z,12.35
2022-12-14T08:06:04.890Z,12.63
2022-12-14T08:08:32.709Z,11.63
2022-12-14T08:11:00.144Z,12.82
2022-12-14T08:13:27.788Z,13.65
2022-12-14T08:15:55.363Z,12.98
2022-12-14T08:18:22.535Z,12.52
2022-12-14T08:20:53.289Z,12.55
2022-12-14T08:23:21.414Z,13.38
2022-12-14T08:25:53.448Z,11.48
2022-12-14T08:28:20.548Z,11.90
2022-12-14T08:30:48.007Z,13.35
2022-12-14T08:33:15.121Z,13.70
2022-12-14T08:35:42.221Z,12.63
2022-12-14T08:38:09.546Z,13.02
2022-12-14T08:40:37.253Z,12.98
2022-12-14T08:43:04.985Z,12.85
2022-12-14T08:45:32.212Z,12.60
2022-12-14T08:48:00.170Z,12.38
2022-12-14T08:50:27.815Z,13.52
2022-12-14T08:52:55.013Z,11.70
2022-12-14T08:55:28.304Z,11.20
2022-12-14T08:57:56.521Z,12.60
2022-12-14T09:00:23.729Z,13.13
2022-12-14T09:02:51.637Z,12.93
2022-12-14T09:05:18.950Z,13.32
2022-12-14T09:07:46.253Z,13.43
2022-12-14T09:10:13.607Z,13.45
2022-12-14T09:12:40.875Z,13.48
2022-12-14T09:15:08.882Z,11.40
2022-12-14T09:17:36.062Z,13.00
2022-12-14T09:20:03.444Z,10.82
2022-12-14T09:22:30.630Z,13.00
2022-12-14T09:24:57.792Z,12.32
2022-12-14T09:27:25.007Z,11.07
2022-12-14T09:29:52.103Z,11.65
2022-12-14T09:32:19.235Z,11.73
2022-12-14T09:34:46.393Z,11.32
2022-12-14T09:37:14.345Z,12.90
2022-12-14T09:39:41.510Z,10.90
2022-12-14T09:42:27.496Z,10.52
2022-12-14T09:45:04.082Z,10.70
2022-12-14T09:47:43.221Z,9.85
2022-12-14T09:50:15.320Z,10.52
2022-12-14T09:52:47.070Z,11.85
2022-12-14T09:55:30.355Z,11.23
2022-12-14T09:58:00.301Z,10.25
2022-12-14T10:00:33.020Z,9.98
2022-12-14T10:03:12.236Z,9.40
2022-12-14T10:05:57.899Z,10.35
2022-12-14T10:08:42.879Z,11.40
2022-12-14T10:11:16.125Z,10.82
2022-12-14T10:13:57.563Z,10.10
2022-12-14T10:19:11.509Z,7.85
2022-12-14T10:21:42.300Z,8.63
2022-12-14T10:24:15.777Z,8.75
2022-12-14T10:26:44.931Z,8.30
2022-12-14T10:29:19.149Z,7.93
2022-12-14T10:32:05.259Z,8.50
2022-12-14T10:34:34.738Z,9.00
2022-12-14T10:37:05.406Z,8.30
2022-12-14T10:39:32.547Z,8.88
2022-12-14T10:42:03.622Z,9.23
2022-12-14T10:44:36.574Z,9.82
2022-12-14T10:47:09.411Z,10.60
2022-12-14T10:49:40.194Z,9.73
2022-12-14T10:52:14.882Z,8.75
2022-12-14T10:54:47.611Z,8.48
2022-12-14T10:57:19.574Z,9.15
2022-12-14T11:00:03.382Z,7.55
2022-12-14T11:02:36.615Z,8.45
2022-12-14T11:05:12.523Z,8.57
2022-12-14T11:07:43.362Z,9.43
2022-12-14T11:10:18.920Z,10.40
2022-12-14T11:13:01.282Z,11.30
2022-12-14T11:15:38.632Z,10.82
2022-12-14T11:18:26.194Z,10.77
2022-12-14T11:20:53.522Z,11.75
2022-12-14T11:23:22.019Z,10.48
2022-12-14T11:25:51.021Z,10.00
2022-12-14T11:28:36.077Z,10.18
2022-12-14T11:31:06.235Z,9.32
2022-12-14T11:33:39.309Z,9.15
2022-12-14T11:36:07.385Z,9.10
2022-12-14T11:38:34.965Z,9.80
2022-12-14T11:41:08.931Z,10.70
2022-12-14T11:43:38.989Z,10.02
2022-12-14T11:46:06.547Z,9.73
2022-12-14T11:48:38.371Z,10.73
2022-12-14T11:51:13.012Z,9.00
2022-12-14T11:53:40.723Z,10.65
2022-12-14T11:56:17.631Z,9.02
2022-12-14T11:58:49.791Z,10.82
2022-12-14T12:01:19.439Z,11.82
2022-12-14T12:03:48.609Z,9.63
2022-12-14T12:06:19.902Z,9.88
2022-12-14T12:08:47.149Z,8.35
2022-12-14T12:11:19.949Z,7.50
2022-12-14T12:13:50.899Z,7.50
2022-12-14T12:16:19.900Z,7.05
2022-12-14T12:18:51.705Z,8.18
2022-12-14T12:21:18.833Z,7.82
2022-12-14T12:23:48.656Z,9.63
2022-12-14T12:26:22.397Z,9.43
2022-12-14T12:29:18.840Z,11.25
2022-12-14T12:31:51.097Z,9.57
2022-12-14T12:34:20.971Z,9.90
2022-12-14T12:37:17.394Z,9.57
2022-12-14T12:39:36.785Z,8.50
2022-12-14T12:42:10.097Z,8.38
2022-12-14T12:44:42.132Z,8.10
2022-12-14T12:47:34.463Z,7.40
2022-12-14T12:50:13.774Z,9.23
2022-12-14T12:52:46.868Z,9.38
2022-12-14T12:55:18.519Z,7.72
2022-12-14T12:57:47.133Z,9.18
2022-12-14T13:00:18.662Z,8.52
2022-12-14T13:02:51.481Z,8.07
2022-12-14T13:08:09.685Z,7.85
2022-12-14T13:10:50.594Z,7.88
2022-12-14T13:13:29.981Z,7.97
2022-12-14T13:16:14.282Z,8.45
2022-12-14T13:21:39.985Z,9.43
2022-12-14T13:24:07.760Z,9.18
2022-12-14T13:26:58.036Z,9.23
2022-12-14T13:29:34.633Z,11.07
2022-12-14T13:32:07.499Z,9.93
2022-12-14T13:34:54.873Z,10.85
2022-12-14T13:37:28.281Z,8.52
2022-12-14T13:40:14.014Z,9.68
2022-12-14T13:42:51.964Z,9.20
2022-12-14T13:45:21.108Z,9.02
2022-12-14T13:47:51.559Z,8.88
2022-12-14T13:50:42.427Z,9.10
2022-12-14T13:53:12.813Z,8.48
2022-12-14T13:56:00.226Z,8.68
2022-12-14T13:58:34.087Z,8.63
2022-12-14T14:01:03.844Z,7.78
2022-12-14T14:03:37.353Z,8.68
2022-12-14T14:06:13.804Z,10.32
2022-12-14T14:08:43.060Z,9.90
2022-12-14T14:11:38.403Z,20.17
2022-12-14T14:14:12.445Z,27.67
2022-12-14T14:16:43.557Z,39.97
2022-12-14T14:19:11.345Z,32.35
2022-12-14T14:24:54.934Z,20.45
2022-12-14T14:27:42.195Z,15.02
2022-12-14T14:30:28.372Z,14.60
2022-12-14T14:33:07.482Z,14.52
2022-12-14T14:35:40.665Z,15.15
2022-12-14T14:38:07.815Z,13.05
2022-12-14T14:41:15.208Z,14.65
2022-12-14T14:43:30.949Z,14.98
2022-12-14T14:46:02.785Z,15.55
2022-12-14T14:48:38.402Z,16.08
2022-12-14T14:51:08.721Z,14.18
2022-12-14T14:53:37.123Z,14.43
2022-12-14T14:56:24.548Z,15.23
2022-12-14T14:58:51.874Z,15.50
2022-12-14T15:01:21.497Z,14.73
2022-12-14T15:03:48.815Z,15.75
2022-12-14T15:06:21.602Z,19.05
2022-12-14T15:08:51.136Z,16.63
2022-12-14T15:11:20.133Z,16.30
2022-12-14T15:14:07.555Z,16.85
2022-12-14T15:16:42.099Z,15.07
2022-12-14T15:19:21.710Z,15.80
2022-12-14T15:21:56.920Z,16.42
2022-12-14T15:24:24.991Z,15.40
2022-12-14T15:26:52.329Z,14.55
2022-12-14T15:29:22.864Z,14.15
2022-12-14T15:31:57.517Z,14.00
2022-12-14T15:34:26.929Z,13.75
2022-12-14T15:36:54.431Z,14.10
2022-12-14T15:39:27.326Z,12.85
2022-12-14T15:42:02.423Z,13.52
2022-12-14T15:44:29.559Z,13.02
2022-12-14T15:46:56.740Z,13.40
2022-12-14T15:49:24.110Z,13.07
2022-12-14T15:51:51.849Z,13.00
2022-12-14T15:54:20.273Z,14.23
2022-12-14T15:56:48.848Z,14.95
2022-12-14T15:59:21.210Z,14.55
2022-12-14T16:01:54.295Z,13.40
2022-12-14T16:04:27.482Z,13.68
2022-12-14T16:07:00.548Z,13.23
2022-12-14T16:09:34.208Z,12.48
2022-12-14T16:12:04.433Z,13.88
2022-12-14T16:14:43.914Z,12.70
2022-12-14T16:17:13.928Z,13.55
2022-12-14T16:19:58.594Z,13.55
2022-12-14T16:22:27.967Z,13.52
2022-12-14T16:25:01.545Z,18.63
2022-12-14T16:27:29.271Z,14.02
2022-12-14T16:30:15.064Z,14.35
2022-12-14T16:32:42.253Z,13.32
2022-12-14T16:35:17.979Z,14.65
2022-12-14T16:37:45.360Z,12.77
2022-12-14T16:40:24.140Z,14.15
2022-12-14T16:42:51.379Z,14.77
2022-12-14T16:45:38.467Z,15.02
2022-12-14T16:48:05.675Z,13.98
2022-12-14T16:50:55.370Z,15.73
2022-12-14T16:53:25.179Z,15.73
2022-12-14T16:56:15.925Z,19.13
2022-12-14T16:58:51.604Z,15.80
2022-12-14T17:01:18.856Z,17.48
2022-12-14T17:03:51.938Z,16.33
2022-12-14T17:06:23.606Z,17.00
2022-12-14T17:08:50.698Z,17.27
2022-12-14T17:11:17.979Z,17.05
2022-12-14T17:13:45.089Z,18.08
2022-12-14T17:16:23.515Z,18.58
2022-12-14T17:18:50.737Z,19.17
2022-12-14T17:21:19.624Z,20.20
2022-12-14T17:23:47.826Z,19.45
2022-12-14T17:26:22.730Z,19.98
2022-12-14T17:28:49.971Z,20.88
2022-12-14T17:31:18.540Z,21.35
2022-12-14T17:33:45.863Z,21.85
2022-12-14T17:36:13.071Z,25.40
2022-12-14T17:38:40.234Z,33.00
2022-12-14T17:41:07.627Z,19.63
2022-12-14T17:43:35.145Z,17.63
2022-12-14T17:46:03.275Z,18.50
2022-12-14T17:48:30.749Z,16.45
2022-12-14T17:50:57.993Z,16.73
2022-12-14T17:53:28.109Z,17.77
2022-12-14T17:55:55.493Z,16.47
2022-12-14T17:58:22.842Z,16.98
2022-12-14T18:01:02.848Z,17.23
2022-12-14T18:03:32.276Z,18.30
2022-12-14T18:05:59.855Z,17.42
2022-12-14T18:08:27.438Z,20.25
2022-12-14T18:10:56.635Z,19.70
2022-12-14T18:13:23.893Z,20.75
2022-12-14T18:15:52.276Z,20.08
2022-12-14T18:18:22.668Z,22.42
2022-12-14T18:20:51.636Z,22.85
2022-12-14T18:23:19.087Z,21.30
2022-12-14T18:25:48.070Z,25.45
2022-12-14T18:28:15.735Z,26.23
2022-12-14T18:30:49.372Z,30.13
2022-12-14T18:33:18.378Z,34.75
2022-12-14T18:35:46.045Z,32.55
2022-12-14T18:38:13.522Z,28.50
2022-12-14T18:40:41.954Z,31.50
2022-12-14T18:43:13.766Z,32.72
2022-12-14T18:45:40.911Z,31.13
2022-12-14T18:48:08.270Z,31.38
2022-12-14T18:50:39.558Z,29.23
2022-12-14T18:53:13.620Z,26.33
2022-12-14T18:55:41.270Z,28.20
2022-12-14T18:58:08.521Z,26.02
2022-12-14T19:00:36.886Z,28.60
2022-12-14T19:03:04.973Z,27.48
2022-12-14T19:05:32.463Z,25.45
2022-12-14T19:08:00.542Z,29.23
2022-12-14T19:10:29.422Z,26.52
2022-12-14T19:12:56.596Z,31.95
2022-12-14T19:15:25.329Z,31.00
2022-12-14T19:17:52.772Z,29.23
2022-12-14T19:20:19.999Z,29.60
2022-12-14T19:22:48.067Z,29.15
2022-12-14T19:25:16.302Z,24.20
2022-12-14T19:28:25.684Z,23.67
2022-12-14T19:30:34.545Z,24.48
2022-12-14T19:33:01.880Z,29.00
2022-12-14T19:35:29.011Z,18.70
2022-12-14T19:37:56.201Z,28.55
2022-12-14T19:40:23.409Z,28.45
2022-12-14T19:42:51.184Z,29.27
2022-12-14T19:45:18.512Z,29.20
2022-12-14T19:47:45.666Z,26.95
2022-12-14T19:50:14.252Z,26.35
2022-12-14T19:52:41.703Z,26.05
2022-12-14T19:55:09.101Z,20.92
2022-12-14T19:57:36.506Z,23.30
2022-12-14T20:00:03.778Z,23.30
2022-12-14T20:02:31.031Z,20.52
2022-12-14T20:04:58.257Z,22.13
2022-12-14T20:07:25.450Z,25.70
2022-12-14T20:09:52.655Z,22.90
2022-12-14T20:12:19.769Z,26.50
2022-12-14T20:14:49.308Z,23.77
2022-12-14T20:17:16.708Z,22.58
2022-12-14T20:19:44.045Z,26.67
2022-12-14T20:22:11.299Z,28.35
2022-12-14T20:24:38.597Z,26.05
2022-12-14T20:27:05.726Z,22.35
2022-12-14T20:29:33.096Z,22.77
2022-12-14T20:32:00.368Z,19.25
2022-12-14T20:34:29.044Z,23.80
2022-12-14T20:36:56.343Z,25.05
2022-12-14T20:39:23.762Z,22.63
2022-12-14T20:41:50.920Z,19.85
2022-12-14T20:44:18.166Z,20.92
2022-12-14T20:46:47.216Z,23.50
2022-12-14T20:49:16.034Z,16.58
2022-12-14T20:51:43.872Z,20.33
2022-12-14T20:54:12.324Z,22.23
2022-12-14T20:56:39.581Z,21.88
2022-12-14T20:59:06.927Z,16.95
2022-12-14T21:01:35.798Z,22.55
2022-12-14T21:04:03.765Z,21.90
2022-12-14T21:06:33.112Z,20.30
2022-12-14T21:09:09.363Z,24.67
2022-12-14T21:12:08.288Z,23.42
2022-12-14T21:14:36.546Z,22.08
2022-12-14T21:17:04.017Z,20.42
2022-12-14T21:19:32.226Z,22.13
2022-12-14T21:21:59.420Z,25.88
2022-12-14T21:27:21.529Z,23.20
2022-12-14T21:29:49.162Z,21.15
2022-12-14T21:32:17.049Z,23.25
2022-12-14T21:34:44.270Z,20.17
2022-12-14T21:37:12.018Z,23.58
2022-12-14T21:39:39.178Z,21.65
2022-12-14T21:42:15.859Z,19.65
2022-12-14T21:44:44.263Z,14.65
2022-12-14T21:47:13.036Z,18.95
2022-12-14T21:49:40.906Z,20.48
2022-12-14T21:52:12.959Z,22.38
2022-12-14T21:54:40.739Z,23.73
2022-12-14T21:57:26.435Z,16.70
2022-12-14T21:59:53.699Z,20.70
2022-12-14T22:02:22.735Z,18.80
2022-12-14T22:04:50.512Z,21.88
2022-12-14T22:07:18.794Z,17.73
2022-12-14T22:09:49.680Z,22.08
2022-12-14T22:14:44.388Z,19.80
2022-12-14T22:17:12.090Z,20.42
2022-12-14T22:19:39.286Z,21.77
2022-12-14T22:22:06.478Z,21.67
2022-12-14T22:24:33.708Z,21.15
2022-12-14T22:27:00.837Z,22.15
2022-12-14T22:29:28.842Z,19.08
2022-12-14T22:31:56.090Z,22.00
2022-12-14T22:34:23.979Z,21.42
2022-12-14T22:36:52.642Z,20.92
2022-12-14T22:39:20.257Z,20.50
2022-12-14T22:41:47.506Z,18.80
2022-12-14T22:44:14.700Z,20.55
2022-12-14T22:46:41.898Z,19.40
2022-12-14T22:49:09.028Z,18.67
2022-12-14T22:51:36.568Z,20.17
2022-12-14T22:54:04.189Z,19.98
2022-12-14T22:56:33.175Z,18.85
2022-12-14T22:59:11.555Z,18.63
2022-12-14T23:01:40.186Z,20.30
2022-12-14T23:04:08.502Z,18.50
2022-12-14T23:06:35.796Z,17.63
2022-12-14T23:09:21.529Z,16.00
2022-12-14T23:12:11.300Z,14.93
2022-12-14T23:14:57.536Z,15.65
2022-12-14T23:17:43.515Z,16.75
2022-12-14T23:20:29.915Z,17.05
2022-12-14T23:23:16.035Z,18.23
2022-12-14T23:26:01.897Z,15.95
2022-12-14T23:28:50.585Z,16.55
2022-12-14T23:31:36.594Z,16.02
2022-12-14T23:34:22.422Z,16.65
2022-12-14T23:37:08.456Z,15.75
2022-12-14T23:39:55.223Z,15.40
2022-12-14T23:42:41.144Z,14.20
2022-12-14T23:45:27.081Z,14.13
2022-12-14T23:48:15.775Z,15.07
2022-12-14T23:51:01.729Z,13.70
2022-12-14T23:53:49.993Z,13.52
2022-12-14T23:56:36.203Z,14.32
2022-12-14T23:59:26.250Z,13.00
